Time;durP1;ratioP1;P1;durP2;ratioP2;P2;SDS_P1;SDS_P2;PMS_P1;PMS_P2;Temp;Humidity;BMP_temperature;BMP_pressure;BME280_temperature;BME280_humidity;BME280_pressure;Samples;Min_cycle;Max_cycle;Signal;HPM_P1;HPM_P2
2023/10/02 00:05:10;;;;;;;;;;;;;;;28.84;42.16;94996.31;5070539;28;8776;-61
2023/10/02 00:07:42;;;;;;;;;;;;;;;28.86;42.47;94995.81;5087203;28;9265;-62
2023/10/02 00:10:17;;;;;;;;;;;;;;;28.86;41.41;95002.09;5077191;28;7350;-62
2023/10/02 00:12:59;;;;;;;;;;;;;;;28.82;41.97;94995.31;5065698;28;7003;-62
2023/10/02 00:15:31;;;;;;;;;;;;;;;28.81;42.21;94991.84;5082886;28;7298;-62
2023/10/02 00:18:35;;;;;;;;;;;;;;;28.83;41.30;94999.59;5056361;28;7212;-62
2023/10/02 00:21:19;;;;;;;;;;;;;;;28.81;41.64;94999.38;4973037;28;8641;-62
2023/10/02 00:24:00;;;;;;;;;;;;;;;28.80;41.65;95001.38;4969180;28;7458;-62
2023/10/02 00:26:36;;;;;;;;;;;;;;;28.80;42.12;95001.38;4965824;28;7885;-63
2023/10/02 00:29:06;;;;;;;;;;;;;;;28.80;41.67;94998.63;4978477;28;7207;-62
2023/10/02 00:31:44;;;;;;;;;;;;;;;28.78;41.60;94998.38;4966826;28;7384;-62
2023/10/02 00:34:36;;;;;;;;;;;;;;;28.79;41.27;94988.06;4979509;28;7292;-55
2023/10/02 00:37:12;;;;;;;;;;;;;;;28.79;42.04;94997.13;4992856;28;7245;-55
2023/10/02 00:39:52;;;;;;;;;;;;;;;28.74;42.10;94992.41;4987198;28;7571;-55
2023/10/02 00:42:36;;;;;;;;;;;;;;;28.77;42.39;94987.84;4974157;28;7200;-55
2023/10/02 00:45:13;;;;;;;;;;;;;;;28.78;42.23;95000.41;4969427;28;7342;-55
2023/10/02 00:47:43;;;;;;;;;;;;;;;28.77;42.78;94996.16;4989844;28;7253;-55
2023/10/02 00:50:49;;;;;;;;;;;;;;;28.76;42.36;94998.16;4995512;28;7188;-55
2023/10/02 00:53:45;;;;;;;;;;;;;;;28.73;42.34;94999.19;4908785;29;8209;-55
2023/10/02 00:56:28;;;;;;;;;;;;;;;28.72;42.55;95003.25;4973023;28;7240;-55
2023/10/02 00:59:00;;;;;;;;;;;;;;;28.73;41.65;94998.47;4971776;28;7368;-55
2023/10/02 01:01:35;;;;;;;;;;;;;;;28.70;42.35;94994.69;4984615;28;7224;-55
2023/10/02 01:04:10;;;;;;;;;;;;;;;28.71;42.62;94998.94;4989590;28;7001;-56
2023/10/02 01:10:11;;;;;;;;;;;;;;;28.70;41.87;95003.00;4982390;28;7256;-55
2023/10/02 01:12:49;;;;;;;;;;;;;;;28.68;42.38;95000.00;4974236;28;7093;-55
2023/10/02 01:15:21;;;;;;;;;;;;;;;28.67;41.75;94990.19;4974270;28;8957;-55
2023/10/02 01:17:50;;;;;;;;;;;;;;;28.69;42.33;94993.19;4968064;28;7124;-55
2023/10/02 01:20:32;;;;;;;;;;;;;;;28.69;41.65;94998.72;4982218;28;9040;-55
2023/10/02 01:23:22;;;;;;;;;;;;;;;28.68;41.56;95000.00;4985604;28;8855;-55
2023/10/02 01:26:20;;;;;;;;;;;;;;;28.69;42.57;95001.50;4972180;28;8688;-55
2023/10/02 01:28:58;;;;;;;;;;;;;;;28.67;41.63;95001.25;4889612;28;7311;-55
2023/10/02 01:31:52;;;;;;;;;;;;;;;28.68;42.42;94994.47;4947950;28;7510;-55
2023/10/02 01:34:39;;;;;;;;;;;;;;;28.66;42.42;94993.47;4960951;28;7181;-55
2023/10/02 01:37:35;;;;;;;;;;;;;;;28.66;41.77;94988.69;4971824;28;7918;-55
2023/10/02 01:43:12;;;;;;;;;;;;;;;28.64;42.01;94993.25;4965013;28;9127;-62
2023/10/02 01:45:48;;;;;;;;;;;;;;;28.64;42.18;94999.53;4954507;28;9188;-54
2023/10/02 01:54:15;;;;;;;;;;;;;;;28.60;42.24;94990.03;4964825;28;9123;-54
2023/10/02 01:56:56;;;;;;;;;;;;;;;28.61;42.20;94992.25;4968501;28;7358;-54
2023/10/02 01:59:35;;;;;;;;;;;;;;;28.62;42.67;94985.47;4969748;28;7087;-53
2023/10/02 02:02:25;;;;;;;;;;;;;;;28.60;42.39;94995.56;4952289;28;7418;-54
2023/10/02 02:05:23;;;;;;;;;;;;;;;28.55;42.38;94991.53;5007537;28;7215;-54
2023/10/02 02:07:49;;;;;;;;;;;;;;;28.51;41.94;94982.78;5004492;28;7287;-54
2023/10/02 02:10:27;;;;;;;;;;;;;;;28.51;41.92;94993.09;5001408;28;9609;-54
2023/10/02 02:12:55;;;;;;;;;;;;;;;28.48;42.75;94983.03;5002441;28;8812;-53
2023/10/02 02:15:32;;;;;;;;;;;;;;;28.49;42.35;94996.38;4996317;28;8707;-53
2023/10/02 02:18:01;;;;;;;;;;;;;;;28.47;41.92;94998.88;4997045;28;7237;-54
2023/10/02 02:23:35;;;;;;;;;;;;;;;28.47;42.08;94998.16;5003465;28;7219;-54
2023/10/02 02:26:21;;;;;;;;;;;;;;;28.43;42.51;94998.41;4988790;28;7000;-53
2023/10/02 02:28:51;;;;;;;;;;;;;;;28.46;42.20;94997.38;4993772;28;7359;-55
2023/10/02 02:31:39;;;;;;;;;;;;;;;28.44;42.43;95004.69;5019642;28;8592;-54
2023/10/02 02:34:16;;;;;;;;;;;;;;;28.45;42.57;95000.69;4991274;28;7266;-54
2023/10/02 02:36:53;;;;;;;;;;;;;;;28.43;42.24;94998.41;4991165;28;8407;-54
2023/10/02 02:39:25;;;;;;;;;;;;;;;28.41;42.32;94992.66;5005172;28;9418;-54
2023/10/02 02:45:24;;;;;;;;;;;;;;;28.42;42.27;95007.25;5041753;28;7045;-54
2023/10/02 02:47:51;;;;;;;;;;;;;;;28.39;42.25;94992.41;5029121;28;6993;-54
2023/10/02 02:50:17;;;;;;;;;;;;;;;28.39;42.42;95000.72;5018717;28;6966;-54
2023/10/02 02:52:43;;;;;;;;;;;;;;;28.40;42.67;95005.00;5017157;28;7307;-54
2023/10/02 02:55:15;;;;;;;;;;;;;;;28.38;42.30;95002.00;5036194;28;7038;-62
2023/10/02 02:57:45;;;;;;;;;;;;;;;28.39;42.11;95003.47;5033908;28;7251;-62
2023/10/02 03:00:31;;;;;;;;;;;;;;;28.38;41.94;94995.69;5021802;28;7174;-62
2023/10/02 03:03:01;;;;;;;;;;;;;;;28.40;42.29;94999.47;5004892;28;8818;-61
2023/10/02 03:05:42;;;;;;;;;;;;;;;28.39;41.90;95000.72;5036923;28;7216;-62
2023/10/02 03:08:14;;;;;;;;;;;;;;;28.35;42.17;94995.47;5016140;28;7260;-62
2023/10/02 03:10:40;;;;;;;;;;;;;;;28.36;41.97;94999.00;5033789;28;9439;-62
2023/10/02 03:13:15;;;;;;;;;;;;;;;28.34;42.06;95002.25;5032834;28;9163;-62
2023/10/02 03:15:47;;;;;;;;;;;;;;;28.35;42.02;94992.69;5021467;28;8537;-62
2023/10/02 03:18:31;;;;;;;;;;;;;;;28.33;42.30;94994.47;5021212;28;7384;-62
2023/10/02 03:21:14;;;;;;;;;;;;;;;28.35;42.51;94994.72;5044045;28;7134;-62
2023/10/02 03:23:46;;;;;;;;;;;;;;;28.34;42.37;94995.97;5055977;28;7227;-62
2023/10/02 03:26:37;;;;;;;;;;;;;;;28.35;42.36;94994.72;5048984;28;7255;-62
2023/10/02 03:29:23;;;;;;;;;;;;;;;28.34;42.66;94984.91;5059220;28;8767;-62
2023/10/02 03:31:58;;;;;;;;;;;;;;;28.28;42.00;94989.72;5039183;28;7341;-62
2023/10/02 03:35:02;;;;;;;;;;;;;;;28.33;42.49;94988.94;5055775;28;9396;-62
2023/10/02 03:37:57;;;;;;;;;;;;;;;28.32;42.31;94987.44;4994684;28;7005;-62
2023/10/02 03:40:59;;;;;;;;;;;;;;;28.32;42.18;94990.19;4996904;28;7013;-62
2023/10/02 03:43:44;;;;;;;;;;;;;;;28.31;42.19;94988.72;4996360;28;7007;-62
2023/10/02 03:46:43;;;;;;;;;;;;;;;28.30;42.60;94989.97;5025559;28;7194;-62
2023/10/02 03:49:09;;;;;;;;;;;;;;;28.31;42.06;94985.94;4974832;28;7134;-62
2023/10/02 03:51:44;;;;;;;;;;;;;;;28.28;42.36;94990.47;4968322;28;9062;-62
2023/10/02 03:54:18;;;;;;;;;;;;;;;28.31;41.91;94985.94;4957668;28;8672;-62
2023/10/02 03:56:48;;;;;;;;;;;;;;;28.31;42.23;94980.41;4957850;28;9041;-61
2023/10/02 03:59:27;;;;;;;;;;;;;;;28.30;42.64;94985.19;4962072;28;9146;-62
2023/10/02 04:04:51;;;;;;;;;;;;;;;28.31;43.05;94985.94;4968430;28;7194;-55
2023/10/02 04:07:36;;;;;;;;;;;;;;;28.31;41.93;94972.09;4964090;28;8645;-55
2023/10/02 04:10:13;;;;;;;;;;;;;;;28.29;42.67;94971.88;4942631;28;9357;-55
2023/10/02 04:12:50;;;;;;;;;;;;;;;28.29;42.39;94971.88;4992313;28;6912;-55
2023/10/02 04:15:18;;;;;;;;;;;;;;;28.30;42.38;94973.34;4994756;28;8574;-55
2023/10/02 04:17:49;;;;;;;;;;;;;;;28.27;42.30;94977.19;4987614;28;9095;-55
2023/10/02 04:20:30;;;;;;;;;;;;;;;28.27;42.40;94968.88;5005584;28;7163;-55
2023/10/02 04:23:18;;;;;;;;;;;;;;;28.28;42.13;94968.34;4990730;28;6992;-55
2023/10/02 04:25:53;;;;;;;;;;;;;;;28.27;42.63;94960.56;5054933;28;7242;-55
2023/10/02 04:29:26;;;;;;;;;;;;;;;28.27;42.79;94972.38;5064760;28;8762;-55
2023/10/02 04:32:14;;;;;;;;;;;;;;;28.26;42.16;94972.91;5018184;28;8812;-55
2023/10/02 04:34:56;;;;;;;;;;;;;;;28.24;41.95;94975.44;5018441;28;7311;-55
2023/10/02 04:37:36;;;;;;;;;;;;;;;28.22;42.28;94983.50;5009491;28;7096;-55
2023/10/02 04:43:23;;;;;;;;;;;;;;;28.26;42.42;94978.44;5025820;28;8212;-55
2023/10/02 04:46:09;;;;;;;;;;;;;;;28.24;42.28;94980.97;5024132;28;7353;-55
2023/10/02 04:49:07;;;;;;;;;;;;;;;28.24;42.54;94981.72;5019708;28;7305;-55
2023/10/02 04:51:59;;;;;;;;;;;;;;;28.25;42.27;94988.00;5028537;28;7190;-55
2023/10/02 04:54:35;;;;;;;;;;;;;;;28.24;42.70;94983.72;5013288;28;7275;-55
2023/10/02 04:57:14;;;;;;;;;;;;;;;28.24;42.13;94980.97;5025040;28;9128;-55
2023/10/02 05:00:00;;;;;;;;;;;;;;;28.21;42.16;94981.97;5023669;28;9133;-55
2023/10/02 05:02:39;;;;;;;;;;;;;;;28.22;42.34;94981.47;5022814;28;7234;-55
2023/10/02 05:05:34;;;;;;;;;;;;;;;28.23;42.84;94980.19;5025021;28;7230;-55
2023/10/02 05:08:17;;;;;;;;;;;;;;;28.20;42.52;94975.72;5044389;28;7257;-55
2023/10/02 05:10:50;;;;;;;;;;;;;;;28.23;42.59;94982.25;5085321;28;7008;-56
2023/10/02 05:16:38;;;;;;;;;;;;;;;28.20;42.61;94983.25;5072016;28;7528;-62
2023/10/02 05:20:01;;;;;;;;;;;;;;;28.20;42.17;94988.78;5009936;28;9139;-61
2023/10/02 05:22:58;;;;;;;;;;;;;;;28.20;42.89;94992.31;5001269;28;8746;-61
2023/10/02 05:25:27;;;;;;;;;;;;;;;28.21;42.39;94995.81;5004025;28;8516;-61
2023/10/02 05:27:55;;;;;;;;;;;;;;;28.20;42.83;94997.84;4990772;28;7161;-61
2023/10/02 05:30:41;;;;;;;;;;;;;;;28.21;41.80;94995.81;5019647;28;6981;-62
2023/10/02 05:33:07;;;;;;;;;;;;;;;28.18;42.05;95000.38;4990321;28;8793;-63
2023/10/02 05:36:09;;;;;;;;;;;;;;;28.15;41.52;95006.91;4994578;28;7005;-63
2023/10/02 05:38:38;;;;;;;;;;;;;;;28.17;41.35;95012.69;4976804;28;7014;-63
2023/10/02 05:41:46;;;;;;;;;;;;;;;28.16;41.38;95002.91;4972156;28;7410;-63
2023/10/02 05:44:23;;;;;;;;;;;;;;;28.15;41.26;95011.69;4967360;28;8713;-63
2023/10/02 05:47:08;;;;;;;;;;;;;;;28.15;41.36;95006.91;4977901;28;8804;-63
2023/10/02 05:50:08;;;;;;;;;;;;;;;28.15;41.64;95006.16;4972806;28;7538;-63
2023/10/02 05:52:54;;;;;;;;;;;;;;;28.14;41.96;95010.22;4952668;28;8102;-64
2023/10/02 05:56:27;;;;;;;;;;;;;;;28.16;42.14;95004.91;4952772;28;8990;-63
2023/10/02 05:58:49;;;;;;;;;;;;;;;28.15;41.31;95006.16;4843406;29;7760;-63
2023/10/02 06:01:19;;;;;;;;;;;;;;;28.16;41.48;95007.69;4857872;29;9471;-62
2023/10/02 06:04:00;;;;;;;;;;;;;;;28.13;41.45;94994.88;4856008;29;8342;-63
2023/10/02 06:06:35;;;;;;;;;;;;;;;28.16;41.83;95002.91;4872022;29;8100;-63
2023/10/02 06:09:03;;;;;;;;;;;;;;;28.17;42.14;95001.63;4856191;29;7215;-63
2023/10/02 06:11:33;;;;;;;;;;;;;;;28.19;41.66;95001.84;4854720;29;9693;-63
2023/10/02 06:14:13;;;;;;;;;;;;;;;28.20;41.63;95005.38;4885251;29;7421;-63
2023/10/02 06:17:00;;;;;;;;;;;;;;;28.18;42.44;95005.91;4950812;28;7356;-63
2023/10/02 06:19:42;;;;;;;;;;;;;;;28.20;41.32;95006.13;4949470;28;7333;-63
2023/10/02 06:22:15;;;;;;;;;;;;;;;28.21;41.39;95001.34;4936552;28;7269;-63
2023/10/02 06:24:45;;;;;;;;;;;;;;;28.18;41.72;95010.69;4932705;29;7520;-60
2023/10/02 06:27:15;;;;;;;;;;;;;;;28.19;42.03;95012.94;4931435;28;8850;-60
2023/10/02 06:29:52;;;;;;;;;;;;;;;28.19;41.48;95003.88;4993757;28;7321;-60
2023/10/02 06:32:24;;;;;;;;;;;;;;;28.20;42.27;94997.09;4970077;28;7853;-60
2023/10/02 06:34:57;;;;;;;;;;;;;;;28.19;41.79;95010.16;5039168;28;9087;-61
2023/10/02 06:37:36;;;;;;;;;;;;;;;28.21;42.12;95004.09;5071069;28;6960;-61
2023/10/02 06:40:14;;;;;;;;;;;;;;;28.21;41.57;95012.41;5073212;28;7073;-61
2023/10/02 06:42:49;;;;;;;;;;;;;;;28.20;41.68;95011.69;5080269;28;7088;-61
2023/10/02 06:45:18;;;;;;;;;;;;;;;28.16;41.30;95010.44;5065371;28;7098;-61
2023/10/02 06:47:48;;;;;;;;;;;;;;;28.21;41.57;95020.69;5060439;28;7238;-61
2023/10/02 06:50:35;;;;;;;;;;;;;;;28.23;41.33;95009.91;5062968;28;6975;-61
2023/10/02 06:53:02;;;;;;;;;;;;;;;28.20;41.90;95010.91;5062200;28;9591;-62
2023/10/02 06:55:58;;;;;;;;;;;;;;;28.21;41.80;95021.47;5067199;28;7070;-61
2023/10/02 06:58:26;;;;;;;;;;;;;;;28.23;41.73;95016.16;5064501;28;7257;-61
2023/10/02 07:00:54;;;;;;;;;;;;;;;28.24;42.24;95019.69;5061505;28;7151;-61
2023/10/02 07:03:21;;;;;;;;;;;;;;;28.20;41.71;95014.44;5052096;28;9173;-61
2023/10/02 07:05:57;;;;;;;;;;;;;;;28.21;41.68;95017.94;5081080;28;7866;-61
2023/10/02 07:08:33;;;;;;;;;;;;;;;28.22;42.17;95017.44;5045583;28;9456;-61
2023/10/02 07:11:01;;;;;;;;;;;;;;;28.19;41.58;95015.69;5058113;28;7068;-61
2023/10/02 07:13:32;;;;;;;;;;;;;;;28.21;41.33;95029.75;5067345;28;9152;-61
2023/10/02 07:16:22;;;;;;;;;;;;;;;28.23;41.87;95024.47;5059701;28;8922;-61
2023/10/02 07:18:55;;;;;;;;;;;;;;;28.24;41.65;95030.75;5063117;28;6999;-61
2023/10/02 07:21:30;;;;;;;;;;;;;;;28.26;42.18;95023.44;5046102;28;7270;-61
2023/10/02 07:24:28;;;;;;;;;;;;;;;28.22;41.54;95014.69;5082374;28;7087;-61
2023/10/02 07:27:24;;;;;;;;;;;;;;;28.28;42.28;95023.69;5036214;28;9511;-61
2023/10/02 07:30:02;;;;;;;;;;;;;;;28.29;41.88;95021.66;5047284;28;7097;-62
2023/10/02 07:32:34;;;;;;;;;;;;;;;28.29;41.98;95013.38;5046174;28;7001;-62
2023/10/02 07:35:21;;;;;;;;;;;;;;;28.30;41.33;95021.16;5045758;28;7461;-55
2023/10/02 07:37:58;;;;;;;;;;;;;;;28.31;42.06;95021.91;5049538;28;9186;-55
2023/10/02 07:40:48;;;;;;;;;;;;;;;28.30;41.57;95018.38;5063308;28;7151;-55
2023/10/02 07:43:24;;;;;;;;;;;;;;;28.27;41.46;95013.13;5062733;28;8784;-55
2023/10/02 07:46:14;;;;;;;;;;;;;;;28.29;41.19;95008.59;5073630;28;7061;-55
2023/10/02 07:48:43;;;;;;;;;;;;;;;28.30;41.69;95015.63;5062131;28;7527;-55
2023/10/02 07:51:21;;;;;;;;;;;;;;;28.32;41.50;95015.09;5072022;28;7237;-55
2023/10/02 07:53:49;;;;;;;;;;;;;;;28.30;41.35;95018.38;5046738;28;6993;-55
2023/10/02 07:56:16;;;;;;;;;;;;;;;28.31;41.38;95014.38;5071650;28;7134;-56
2023/10/02 07:58:54;;;;;;;;;;;;;;;28.32;41.02;95020.63;5062501;28;7559;-55
2023/10/02 08:02:21;;;;;;;;;;;;;;;28.31;42.10;95019.13;5079583;28;7186;-55
2023/10/02 08:04:53;;;;;;;;;;;;;;;28.30;41.93;95023.16;5060392;28;7212;-56
2023/10/02 08:07:24;;;;;;;;;;;;;;;28.30;41.52;95021.16;5056451;28;9092;-55
2023/10/02 08:10:05;;;;;;;;;;;;;;;28.31;42.04;95017.13;5051166;28;7232;-56
2023/10/02 08:12:39;;;;;;;;;;;;;;;28.32;41.31;95020.63;5065896;28;7253;-55
2023/10/02 08:15:40;;;;;;;;;;;;;;;28.33;41.37;95019.38;5083194;28;7587;-55
2023/10/02 08:18:17;;;;;;;;;;;;;;;28.33;41.33;95020.13;5035140;28;7222;-56
2023/10/02 08:20:58;;;;;;;;;;;;;;;28.33;41.29;95017.38;5032074;28;6939;-55
2023/10/02 08:23:27;;;;;;;;;;;;;;;28.35;41.82;95025.16;5016497;28;7770;-55
2023/10/02 08:26:04;;;;;;;;;;;;;;;28.36;41.53;95015.59;5033998;28;7343;-55
2023/10/02 08:28:39;;;;;;;;;;;;;;;28.38;42.02;95022.09;5035723;28;9032;-55
2023/10/02 08:31:13;;;;;;;;;;;;;;;28.36;40.97;95024.63;5019798;28;9222;-56
2023/10/02 08:33:43;;;;;;;;;;;;;;;28.33;41.75;95017.38;5017866;28;7281;-56
2023/10/02 08:36:09;;;;;;;;;;;;;;;28.36;41.67;95016.31;5033627;28;7421;-56
2023/10/02 08:39:00;;;;;;;;;;;;;;;28.38;41.08;95023.38;5039679;28;7206;-55
2023/10/02 08:41:43;;;;;;;;;;;;;;;28.37;42.27;95017.06;5017882;28;8790;-56
2023/10/02 08:44:25;;;;;;;;;;;;;;;28.37;41.89;95022.59;5024497;28;8290;-52
2023/10/02 08:47:09;;;;;;;;;;;;;;;28.41;41.17;95025.09;5036835;28;7254;-54
2023/10/02 08:49:38;;;;;;;;;;;;;;;28.40;41.89;95021.59;5007397;28;8963;-54
2023/10/02 08:52:17;;;;;;;;;;;;;;;28.40;41.58;95029.13;5016429;28;7286;-53
2023/10/02 08:54:50;;;;;;;;;;;;;;;28.40;41.47;95021.59;5049969;28;7066;-54
2023/10/02 08:57:31;;;;;;;;;;;;;;;28.37;41.57;95022.59;5060644;28;8508;-54
2023/10/02 09:00:15;;;;;;;;;;;;;;;28.38;41.39;95024.13;5075149;28;7091;-54
2023/10/02 09:03:11;;;;;;;;;;;;;;;28.38;41.23;95018.59;5058577;28;7533;-54
2023/10/02 09:06:25;;;;;;;;;;;;;;;28.41;41.61;95020.31;5047589;28;7395;-54
2023/10/02 09:11:34;;;;;;;;;;;;;;;28.37;41.68;95019.84;5075143;28;8602;-54
2023/10/02 09:14:23;;;;;;;;;;;;;;;28.35;41.56;95014.06;5047261;28;7419;-54
2023/10/02 09:17:20;;;;;;;;;;;;;;;28.36;42.00;95019.09;5044546;28;9355;-54
2023/10/02 09:20:07;;;;;;;;;;;;;;;28.36;41.37;95019.09;5006231;28;8691;-54
2023/10/02 09:22:38;;;;;;;;;;;;;;;28.37;40.87;95022.59;5012683;28;7341;-54
2023/10/02 09:25:18;;;;;;;;;;;;;;;28.31;41.14;95006.06;5013592;28;9025;-54
2023/10/02 09:28:13;;;;;;;;;;;;;;;28.36;41.12;95010.06;5027999;28;7192;-54
2023/10/02 09:31:14;;;;;;;;;;;;;;;28.37;41.25;95000.47;5014841;28;8968;-54
2023/10/02 09:33:46;;;;;;;;;;;;;;;28.39;40.75;94997.94;5008236;28;7222;-54
2023/10/02 09:36:40;;;;;;;;;;;;;;;28.39;41.25;94997.94;5019764;28;6983;-54
2023/10/02 09:39:36;;;;;;;;;;;;;;;28.40;41.14;94999.47;5027407;28;7231;-54
2023/10/02 09:42:14;;;;;;;;;;;;;;;28.42;41.78;94990.63;5016201;28;6995;-54
2023/10/02 09:44:54;;;;;;;;;;;;;;;28.44;41.31;94993.63;5008018;28;7496;-54
2023/10/02 09:47:51;;;;;;;;;;;;;;;28.47;41.36;94992.63;5007867;28;7275;-54
2023/10/02 09:50:26;;;;;;;;;;;;;;;28.48;41.60;94983.03;4906816;29;7259;-54
2023/10/02 09:53:16;;;;;;;;;;;;;;;28.47;40.85;94987.81;4932378;29;7362;-61
2023/10/02 09:55:57;;;;;;;;;;;;;;;28.49;41.55;94979.78;4929996;28;7224;-60
2023/10/02 09:58:34;;;;;;;;;;;;;;;28.45;41.35;94979.28;4942913;28;7228;-60
2023/10/02 10:01:59;;;;;;;;;;;;;;;28.46;41.92;94980.78;4956727;28;9103;-60
2023/10/02 10:05:01;;;;;;;;;;;;;;;28.49;41.90;94981.78;4955265;28;9071;-60
2023/10/02 10:10:58;;;;;;;;;;;;;;;28.49;41.89;94979.78;4937619;28;7496;-60
2023/10/02 10:13:47;;;;;;;;;;;;;;;28.50;41.22;94978.50;4958985;28;7222;-60
2023/10/02 10:16:18;;;;;;;;;;;;;;;28.49;41.62;94974.22;4950768;28;7101;-60
2023/10/02 10:21:57;;;;;;;;;;;;;;;28.53;41.51;94963.63;4945855;28;7331;-60
2023/10/02 10:31:09;;;;;;;;;;;;;;;28.54;41.34;94956.81;5064404;28;7188;-60
2023/10/02 10:33:45;;;;;;;;;;;;;;;28.52;41.47;94956.56;5061605;28;8853;-60
2023/10/02 10:37:03;;;;;;;;;;;;;;;28.55;41.23;94955.56;5059660;28;7239;-60
2023/10/02 10:39:51;;;;;;;;;;;;;;;28.55;41.31;94954.78;4983046;28;7411;-60
2023/10/02 10:42:23;;;;;;;;;;;;;;;28.56;42.17;94956.31;5001949;28;9132;-60
2023/10/02 10:44:55;;;;;;;;;;;;;;;28.56;41.52;94951.50;5007427;28;7231;-60
2023/10/02 10:47:37;;;;;;;;;;;;;;;28.57;42.03;94957.78;4992919;28;9046;-60
2023/10/02 10:50:26;;;;;;;;;;;;;;;28.59;41.84;94955.28;4978362;28;9190;-60
2023/10/02 10:53:01;;;;;;;;;;;;;;;28.57;41.42;94944.75;4997762;28;7350;-60
2023/10/02 10:55:32;;;;;;;;;;;;;;;28.57;41.71;94946.72;4982157;28;7187;-61
2023/10/02 10:58:01;;;;;;;;;;;;;;;28.61;41.25;94949.97;4981328;28;7209;-60
2023/10/02 11:00:35;;;;;;;;;;;;;;;28.62;41.50;94943.94;5003701;28;7125;-60
2023/10/02 11:03:13;;;;;;;;;;;;;;;28.61;41.70;94947.97;4999614;28;7268;-60
2023/10/02 11:05:41;;;;;;;;;;;;;;;28.62;41.69;94943.19;4993921;28;7209;-60
2023/10/02 11:08:25;;;;;;;;;;;;;;;28.62;42.10;94943.94;4999296;28;7203;-61
2023/10/02 11:11:06;;;;;;;;;;;;;;;28.64;42.25;94946.19;5009941;28;9312;-61
2023/10/02 11:13:50;;;;;;;;;;;;;;;28.65;41.49;94942.91;4992842;28;7279;-61
2023/10/02 11:16:34;;;;;;;;;;;;;;;28.65;42.01;94942.13;5045417;28;7239;-61
2023/10/02 11:19:21;;;;;;;;;;;;;;;28.69;41.33;94937.81;5067756;28;7140;-61
2023/10/02 11:22:18;;;;;;;;;;;;;;;28.72;41.98;94939.56;5076485;28;7179;-61
2023/10/02 11:25:17;;;;;;;;;;;;;;;28.74;41.74;94934.25;5061871;28;7271;-61
2023/10/02 11:27:56;;;;;;;;;;;;;;;28.74;41.81;94934.25;5064808;28;7399;-60
2023/10/02 11:30:31;;;;;;;;;;;;;;;28.76;41.28;94931.72;5052128;28;7702;-61
2023/10/02 11:33:04;;;;;;;;;;;;;;;28.79;42.40;94929.94;5068901;28;6999;-60
2023/10/02 11:35:41;;;;;;;;;;;;;;;28.80;42.16;94925.88;5057370;28;9039;-61
2023/10/02 11:38:09;;;;;;;;;;;;;;;28.79;42.28;94922.38;5050421;28;9052;-60
2023/10/02 11:40:43;;;;;;;;;;;;;;;28.77;41.61;94910.31;5067442;28;7004;-60
2023/10/02 11:43:14;;;;;;;;;;;;;;;28.81;41.19;94911.53;5050083;28;8243;-60
2023/10/02 11:45:47;;;;;;;;;;;;;;;28.82;41.66;94907.47;5073871;28;6972;-60
2023/10/02 11:48:15;;;;;;;;;;;;;;;28.84;42.15;94906.97;5050610;28;7242;-60
2023/10/02 11:50:47;;;;;;;;;;;;;;;28.85;42.27;94905.69;5052046;28;7140;-60
2023/10/02 11:53:16;;;;;;;;;;;;;;;28.85;42.12;94906.44;5065483;28;7115;-60
2023/10/02 11:55:50;;;;;;;;;;;;;;;28.85;41.47;94898.16;5054693;28;9112;-61
2023/10/02 11:58:28;;;;;;;;;;;;;;;28.85;42.19;94889.09;5059028;28;10134;-60
2023/10/02 12:00:54;;;;;;;;;;;;;;;28.87;41.91;94892.06;5054124;28;7409;-60
2023/10/02 12:03:36;;;;;;;;;;;;;;;28.89;41.87;94895.06;5063799;28;6979;-60
2023/10/02 12:06:22;;;;;;;;;;;;;;;28.90;41.07;94886.28;5054676;28;7092;-61
2023/10/02 12:09:01;;;;;;;;;;;;;;;28.93;41.68;94887.22;5066740;28;8236;-60
2023/10/02 12:11:30;;;;;;;;;;;;;;;28.92;41.29;94880.97;5069871;28;6988;-61
2023/10/02 12:14:02;;;;;;;;;;;;;;;28.92;42.30;94886.50;5045712;28;7392;-61
2023/10/02 12:16:33;;;;;;;;;;;;;;;28.93;41.51;94882.44;5050597;28;7648;-61
2023/10/02 12:18:59;;;;;;;;;;;;;;;28.95;41.45;94882.66;5070827;28;7162;-60
2023/10/02 12:21:25;;;;;;;;;;;;;;;28.95;41.81;94871.59;5042105;28;8763;-61
2023/10/02 12:23:51;;;;;;;;;;;;;;;28.94;41.63;94870.09;5050375;28;7409;-60
2023/10/02 12:26:21;;;;;;;;;;;;;;;28.97;40.90;94871.81;5058264;28;7203;-60
2023/10/02 12:28:47;;;;;;;;;;;;;;;28.97;41.70;94869.03;5056219;28;7074;-60
2023/10/02 12:31:19;;;;;;;;;;;;;;;29.00;41.26;94868.00;5066307;28;7445;-61
2023/10/02 12:33:47;;;;;;;;;;;;;;;29.03;40.75;94861.44;5071828;28;7070;-61
2023/10/02 12:36:23;;;;;;;;;;;;;;;29.05;41.50;94864.44;5054364;28;7134;-60
2023/10/02 12:39:16;;;;;;;;;;;;;;;29.10;40.93;94860.09;5053919;28;7186;-60
2023/10/02 12:41:55;;;;;;;;;;;;;;;29.10;41.21;94857.31;5058209;28;7255;-60
2023/10/02 12:44:30;;;;;;;;;;;;;;;29.10;41.32;94855.28;5054575;28;7039;-61
2023/10/02 12:46:56;;;;;;;;;;;;;;;29.12;41.25;94852.00;5067628;28;7669;-60
2023/10/02 12:49:23;;;;;;;;;;;;;;;29.15;41.54;94848.19;5046936;28;7310;-61
2023/10/02 12:51:55;;;;;;;;;;;;;;;29.16;41.42;94844.19;5062213;28;9162;-60
2023/10/02 12:54:53;;;;;;;;;;;;;;;29.20;40.67;94843.88;5051837;28;9259;-61
2023/10/02 12:57:19;;;;;;;;;;;;;;;29.22;40.72;94835.78;5005174;28;7182;-60
2023/10/02 12:59:47;;;;;;;;;;;;;;;29.26;41.46;94841.75;4971148;28;7463;-61
2023/10/02 13:02:15;;;;;;;;;;;;;;;29.27;41.44;94834.97;4989922;28;7295;-60
2023/10/02 13:04:42;;;;;;;;;;;;;;;29.28;42.03;94831.66;5011489;28;9273;-61
2023/10/02 13:07:38;;;;;;;;;;;;;;;29.31;41.94;94833.38;5016704;28;7337;-61
2023/10/02 13:10:17;;;;;;;;;;;;;;;29.33;41.29;94827.31;5012005;28;6967;-60
2023/10/02 13:12:53;;;;;;;;;;;;;;;29.35;41.19;94830.31;5003433;28;9437;-61
2023/10/02 13:15:19;;;;;;;;;;;;;;;29.35;40.91;94822.00;5012240;28;8823;-61
2023/10/02 13:17:56;;;;;;;;;;;;;;;29.35;40.76;94806.13;4998569;28;9591;-60
2023/10/02 13:20:22;;;;;;;;;;;;;;;29.36;40.82;94810.38;5000647;28;9427;-60
2023/10/02 13:23:06;;;;;;;;;;;;;;;29.38;41.25;94810.63;4994964;28;9034;-56
2023/10/02 13:25:38;;;;;;;;;;;;;;;29.42;40.55;94811.06;5007113;28;9352;-63
2023/10/02 13:28:04;;;;;;;;;;;;;;;29.42;41.55;94793.69;4985191;28;9042;-62
2023/10/02 13:30:33;;;;;;;;;;;;;;;29.46;41.33;94803.19;4995651;28;7308;-62
2023/10/02 13:33:00;;;;;;;;;;;;;;;29.47;40.44;94801.16;5017430;28;7244;-62
2023/10/02 13:35:36;;;;;;;;;;;;;;;29.51;40.88;94798.84;5082175;28;7228;-63
2023/10/02 13:38:05;;;;;;;;;;;;;;;29.52;41.23;94794.78;5048772;28;7128;-63
2023/10/02 13:40:33;;;;;;;;;;;;;;;29.52;40.98;94798.31;5055512;28;8733;-62
2023/10/02 13:43:07;;;;;;;;;;;;;;;29.55;41.04;94793.72;5059116;28;7212;-62
2023/10/02 13:45:36;;;;;;;;;;;;;;;29.55;41.01;94788.19;5076738;28;9063;-62
2023/10/02 13:48:16;;;;;;;;;;;;;;;29.58;41.34;94787.13;5066458;28;7178;-63
2023/10/02 13:50:46;;;;;;;;;;;;;;;29.60;40.57;94779.03;5047094;28;8939;-63
2023/10/02 13:53:23;;;;;;;;;;;;;;;29.63;41.03;94780.75;5065169;28;7573;-62
2023/10/02 13:56:16;;;;;;;;;;;;;;;29.64;40.85;94774.69;5045958;28;7236;-63
2023/10/02 13:58:57;;;;;;;;;;;;;;;29.65;40.31;94773.41;5043497;28;7159;-62
2023/10/02 14:01:24;;;;;;;;;;;;;;;29.67;40.48;94776.38;5043788;28;8898;-62
2023/10/02 14:04:06;;;;;;;;;;;;;;;29.65;40.49;94765.09;5053992;28;7222;-63
2023/10/02 14:06:35;;;;;;;;;;;;;;;29.69;40.79;94773.06;5077894;28;7235;-62
2023/10/02 14:09:33;;;;;;;;;;;;;;;29.74;41.55;94777.81;5064566;28;7236;-62
2023/10/02 14:12:15;;;;;;;;;;;;;;;29.74;40.82;94769.50;5010027;28;7537;-62
2023/10/02 14:14:42;;;;;;;;;;;;;;;29.78;40.36;94767.16;4993442;28;8797;-62
2023/10/02 14:17:09;;;;;;;;;;;;;;;29.78;40.28;94767.91;5001128;28;7986;-62
2023/10/02 14:19:45;;;;;;;;;;;;;;;29.81;41.09;94768.88;5009955;28;9109;-62
2023/10/02 14:22:21;;;;;;;;;;;;;;;29.86;40.69;94765.28;4986957;28;7281;-62
2023/10/02 14:25:01;;;;;;;;;;;;;;;29.90;40.99;94768.47;5011584;28;7459;-62
2023/10/02 14:27:32;;;;;;;;;;;;;;;29.92;41.33;94770.72;5009235;28;7220;-63
2023/10/02 14:29:59;;;;;;;;;;;;;;;29.92;40.54;94768.69;5005286;28;7203;-63
2023/10/02 14:32:40;;;;;;;;;;;;;;;29.91;40.12;94763.66;5013135;28;7349;-62
2023/10/02 14:35:35;;;;;;;;;;;;;;;29.96;40.53;94760.81;5014151;28;7232;-59
2023/10/02 14:38:03;;;;;;;;;;;;;;;29.98;40.50;94769.34;4999129;28;9358;-59
2023/10/02 14:40:34;;;;;;;;;;;;;;;30.01;40.37;94762.00;4996774;28;7008;-60
2023/10/02 14:43:02;;;;;;;;;;;;;;;30.01;40.33;94757.19;4977728;28;7227;-60
2023/10/02 14:45:38;;;;;;;;;;;;;;;30.04;40.53;94756.13;5000511;28;9140;-59
2023/10/02 14:48:25;;;;;;;;;;;;;;;30.09;40.09;94765.63;5007530;28;7250;-60